Hundvaag 1 weather for Apr 2008
Month no. 250
Obs.
Da.
Temp. Dew Point Precip. Wind
Speed
Wind gusts Cloud cover Press. Humidity Wind dir. Sunny OPT
01.04.2008 6,5   0,0 3,0   8 1012,2 73,0 90,0 1 80,0 %
02.04.2008 6,1   5,5 0,0   1 1004,1 80,0 67,5   60,0 %
03.04.2008 4,4   0,0 0,0   0 1019,0 90,0 315,0   57,5 %
04.04.2008 6,1   0,6 3,0   0 1014,9 91,0 135,0   60,0 %
05.04.2008 5,0   3,2 3,0   0 1001,0 87,0 315,0   57,5 %
06.04.2008 0,6   0,2 0,0   6 995,9 81,0 22,5 1 70,0 %
07.04.2008 1,7   0,0 0,0   2 995,9 82,0 135,0   60,0 %
08.04.2008 1,1   0,2 1,0   10 1002,0 82,0 67,5 1 80,0 %
09.04.2008 1,1   0,0 1,0   2 996,9 70,0 135,0 1 60,0 %
10.04.2008 3,3   0,1 0,0   3 991,9 83,0 135,0 1 65,0 %
11.04.2008 2,8   0,7 0,0   10 998,0 85,0 157,5 1 82,5 %
12.04.2008 4,4   2,0 0,0   1 996,9 75,0 157,5   60,0 %
13.04.2008 4,4   3,5 3,0   3 998,0 95,0 135,0 1 62,5 %
14.04.2008 5,0   5,5 0,0   0 1003,0 92,0 270,0 1 57,5 %
15.04.2008 3,3   0,2 0,0   10 1010,8 83,0 315,0 1 82,5 %
16.04.2008 0,6   0,0 0,0   10 1017,9 69,0 270,0 1 80,0 %
17.04.2008 2,2   0,0 0,0   10 1017,9 61,0 90,0 1 80,0 %
18.04.2008 2,8   0,0 0,0   10 1010,8 52,0 315,0 1 82,5 %
19.04.2008 1,7   0,0 0,0   10 1007,1 68,0 45,0 1 80,0 %
20.04.2008 2,8   0,0 0,0   10 1010,2 71,0 135,0 1 82,5 %
21.04.2008 3,9   0,0 0,0   10 1011,8 71,0 135,0 1 82,5 %
22.04.2008 6,1   0,0 2,0   10 1015,9 67,0 180,0 1 85,0 %
23.04.2008 6,7   0,0 1,0   9 1019,0 62,0 45,0 1 82,5 %
24.04.2008 6,7   0,0 1,0   10 1016,9 48,0 22,5 1 85,0 %
25.04.2008 8,9   0,0 4,0   0 1013,9 81,0 157,5   61,0 %
26.04.2008 7,8   0,5 7,0   0 1016,9 77,0 135,0   60,0 %
27.04.2008 10,6   5,7 6,0   0 1011,8 90,0 135,0   60,0 %
28.04.2008 11,7   8,5 3,0   2 1001,0 91,0 112,5 1 65,0 %
29.04.2008 7,2   3,7 0,0   4 1000,0 80,0 135,0 1 67,5 %
30.04.2008 8,9   6,1 0,0   1 1000,0 93,0 45,0   60,0 %
                       
Avrg/Sum 4,8   46,2 1,3   5,1 1007,1 77,7 147,0 20 70,3 %